EQY Airport (Charlotte-Monroe Executive) Information

FAA: EQY - ICAO: KEQY

EQY Airport Location

State North Carolina
County Union
City Monroe
EQY Airport is 5 miles northwest of Monroe, NC.
Latitude 35-01-02.6980N
Longitude 080-37-19.4010W
Elevation 682ft

KEQY Airport METARs

METAR KEQY 180653Z AUTO 00000KT 10SM CLR 06/03 A3016 RMK AO2 SLP224 T00610033
Altimeter 30.16"
Temperature 6.1°C (43.0°F)
Wind 0° at 0KT
Clouds Skies are clear.
Visibility 10.0mi
Time observed: 2021-10-18T06:53:00Z

EQY Airport Details

Status Operational
Activation N/A
Ownership Public
Usage Public
Chart CHARLOTTE
ATC on-site No
Beacon schedule sunset-sunrise
Beacon color clear green

EQY Airport Contacts

Owner CITY OF MONROE
Owner address CITY HALL, P.O. BOX 69, MONROE, NC 28111
Owner phone (704) 282-4730
Manager CHARLES LANEY
Manager address 4235 POOL VIEW DR, MAIDEN, NC 28650
Manager phone (828) 312-6189

EQY Airport (Charlotte-Monroe Executive) Radio Frequencies

EQY (Airport) Radio Frequencies

UNICOM 122.7
Common traffic advisory frequency (CTAF) 122.7